KTTN/TTN METAR and TAF weather

Enter ICAO airport designator
Station Type Date Time Source
KTTN METAR 2022/01/19 19:53 UTC NOAA

KTTN 191953Z 21013KT 10SM CLR 09/M03 A2998 RMK AO2 SLP147 T00891033


Station Type Date Time Source
KTTN Decoded METAR 2022/01/19 19:53 UTC NOAA

TRENTON MERCER COUNTY AIRPORT , NJ, United States (KTTN) 40-17N 074-49W 59M
Jan 19, 2022 - 02:53 PM EST / 2022.01.19 1953 UTC
Wind: from the SSW (210 degrees) at 15 MPH (13 KT):0
Visibility: 10 mile(s):0
Sky conditions: clear
Temperature: 48.0 F (8.9 C)
Dew Point: 26.1 F (-3.3 C)
Relative Humidity: 42%
Pressure (altimeter): 29.98 in. Hg (1015 hPa)
ob: KTTN 191953Z 21013KT 10SM CLR 09/M03 A2998 RMK AO2 SLP147 T00891033
cycle: 20

Station Type Date Time Source
KTTN TAF 2022/01/19 18:24 UTC NOAA

TAF KTTN 191723Z 1918/2018 22012G20KT P6SM BKN200
FM200000 22005KT P6SM OVC060
FM200600 25005KT P6SM -RA OVC025
FM200800 32005KT 5SM -RA BR OVC015
FM201100 35008KT 3SM -SNRA BR OVC008
FM201300 35010KT 1SM -SN BR OVC005
FM201700 34012G20KT 3SM -SN BR OVC025

Example: see airport list